Academia, Pennsylvania
Current Conditions -  °F | °C
As of 2:53 PM on Wednesday 28 Jan 2015 (Local Time) from KUNV Reporting Station
Clear Clear  
Wind Chill: 18°   Ceiling: Unl
Heat Index: 27°   Visibility: 10mi
Dew Point:   Wind: 8mph
Humidity: 43%   Direction: 300°WNW
Pressure: 30.2"   Gusts: NA
Location:  40.4991°N, 77.4687°W
Report Text: KUNV 281953Z 30007KT 10SM SKC M03/M14 A3020
Loading
Personal Weather Stations






























Interactive Weather Map New forecast layout! Learn more

10-Day Weather Forecast

Advertisements
Track Severe Weather on mobile